Time;durP1;ratioP1;P1;durP2;ratioP2;P2;SDS_P1;SDS_P2;PMS_P1;PMS_P2;Temp;Humidity;BMP_temperature;BMP_pressure;BME280_temperature;BME280_humidity;BME280_pressure;Samples;Min_cycle;Max_cycle;Signal;HPM_P1;HPM_P2
2021/11/18 00:02:11;;;;;;;;;;;;;;;20.71;48.71;102565.72;7284572;19;151953;-49
2021/11/18 00:04:38;;;;;;;;;;;;;;;20.70;48.68;102569.63;7287105;19;152747;-48
2021/11/18 00:07:05;;;;;;;;;;;;;;;20.65;48.75;102569.59;7286265;19;153948;-49
2021/11/18 00:09:31;;;;;;;;;;;;;;;20.67;49.09;102562.59;7286907;19;151923;-48
2021/11/18 00:11:58;;;;;;;;;;;;;;;20.65;48.94;102564.84;7292944;19;151980;-48
2021/11/18 00:14:25;;;;;;;;;;;;;;;20.60;49.04;102555.53;7287293;19;152521;-49
2021/11/18 00:16:51;;;;;;;;;;;;;;;20.60;49.02;102563.94;7287633;19;152798;-48
2021/11/18 00:19:18;;;;;;;;;;;;;;;20.59;49.20;102565.91;7282369;19;153461;-49
2021/11/18 00:21:45;;;;;;;;;;;;;;;20.58;48.95;102567.00;7287612;19;151835;-48
2021/11/18 00:24:13;;;;;;;;;;;;;;;20.56;48.81;102572.06;7286697;19;152470;-50
2021/11/18 00:26:40;;;;;;;;;;;;;;;20.51;49.30;102572.03;7285514;19;153610;-49
2021/11/18 00:29:07;;;;;;;;;;;;;;;20.47;49.08;102565.25;7285344;19;151874;-49
2021/11/18 00:31:35;;;;;;;;;;;;;;;20.47;49.62;102567.22;7286213;19;152600;-49
2021/11/18 00:34:03;;;;;;;;;;;;;;;20.47;49.50;102570.88;7291482;19;154404;-48
2021/11/18 00:36:30;;;;;;;;;;;;;;;20.44;49.67;102574.22;7285372;19;152209;-49
2021/11/18 00:38:56;;;;;;;;;;;;;;;20.40;49.54;102570.22;7285103;19;153667;-49
2021/11/18 00:41:23;;;;;;;;;;;;;;;20.38;49.85;102564.91;7282232;19;151943;-49
2021/11/18 00:43:51;;;;;;;;;;;;;;;20.34;49.70;102572.19;7286375;19;153200;-49
2021/11/18 00:46:21;;;;;;;;;;;;;;;20.26;49.46;102572.59;7284857;19;153869;-50
2021/11/18 00:48:48;;;;;;;;;;;;;;;20.25;49.55;102570.09;7285407;19;151657;-49
2021/11/18 00:51:17;;;;;;;;;;;;;;;20.23;49.95;102563.88;7285850;19;152775;-49
2021/11/18 00:53:46;;;;;;;;;;;;;;;20.23;49.65;102561.94;7279186;19;153851;-49
2021/11/18 00:56:13;;;;;;;;;;;;;;;20.21;50.18;102571.75;7291937;19;151970;-50
2021/11/18 00:58:40;;;;;;;;;;;;;;;20.23;50.16;102573.16;7284140;19;153262;-49
2021/11/18 01:01:07;;;;;;;;;;;;;;;20.14;50.30;102563.53;7281530;19;152076;-49
2021/11/18 01:03:35;;;;;;;;;;;;;;;20.16;50.21;102566.94;7284910;19;153389;-49
2021/11/18 01:06:01;;;;;;;;;;;;;;;20.19;50.25;102559.91;7284029;19;154118;-48
2021/11/18 01:08:28;;;;;;;;;;;;;;;20.15;50.11;102572.78;7284697;19;151826;-49
2021/11/18 01:11:01;;;;;;;;;;;;;;;20.15;50.10;102575.59;7285330;19;153241;-50
2021/11/18 01:13:29;;;;;;;;;;;;;;;20.13;50.53;102569.41;7283283;19;153530;-49
2021/11/18 01:15:56;;;;;;;;;;;;;;;20.13;50.42;102575.84;7284572;19;151678;-49
2021/11/18 01:18:23;;;;;;;;;;;;;;;20.12;50.39;102565.78;7290455;19;153332;-49
2021/11/18 01:20:50;;;;;;;;;;;;;;;20.12;50.61;102568.59;7282754;19;152205;-50
2021/11/18 01:23:19;;;;;;;;;;;;;;;20.14;50.38;102563.53;7283283;19;153212;-50
2021/11/18 01:25:46;;;;;;;;;;;;;;;20.09;50.46;102573.84;7283638;19;154641;-49
2021/11/18 01:28:13;;;;;;;;;;;;;;;20.07;50.45;102576.09;7283398;19;152238;-49
2021/11/18 01:30:41;;;;;;;;;;;;;;;20.05;50.44;102589.53;7286784;19;151778;-49
2021/11/18 01:33:09;;;;;;;;;;;;;;;20.06;50.63;102586.47;7289086;19;154503;-49
2021/11/18 01:35:36;;;;;;;;;;;;;;;20.02;50.69;102592.88;7290899;19;151923;-49
2021/11/18 01:38:03;;;;;;;;;;;;;;;20.03;50.75;102587.00;7289969;19;151715;-50
2021/11/18 01:40:32;;;;;;;;;;;;;;;20.03;50.51;102588.97;7296194;19;154394;-49
2021/11/18 01:43:00;;;;;;;;;;;;;;;19.94;50.64;102581.00;7290230;19;152550;-50
2021/11/18 01:45:28;;;;;;;;;;;;;;;19.97;50.45;102588.91;7289625;19;153928;-50
2021/11/18 01:47:55;;;;;;;;;;;;;;;19.93;50.61;102576.53;7289995;19;151788;-49
2021/11/18 01:50:23;;;;;;;;;;;;;;;19.93;51.21;102582.13;7290355;19;153237;-49
2021/11/18 01:52:51;;;;;;;;;;;;;;;19.88;50.81;102587.69;7288698;19;153537;-50
2021/11/18 01:55:22;;;;;;;;;;;;;;;19.89;50.77;102585.72;7290061;19;152017;-48
2021/11/18 01:57:49;;;;;;;;;;;;;;;19.91;50.96;102589.09;7290610;19;153081;-49
2021/11/18 02:00:23;;;;;;;;;;;;;;;19.88;50.93;102589.66;7287690;19;154430;-49
2021/11/18 02:02:50;;;;;;;;;;;;;;;19.85;51.37;102598.59;7296912;19;152103;-46
2021/11/18 02:05:28;;;;;;;;;;;;;;;19.82;51.00;102602.75;7288553;19;153306;-49
2021/11/18 02:07:55;;;;;;;;;;;;;;;19.83;51.31;102607.25;7287643;19;152172;-49
2021/11/18 02:10:29;;;;;;;;;;;;;;;19.84;51.37;102594.09;7289928;19;153121;-50
2021/11/18 02:12:57;;;;;;;;;;;;;;;19.83;51.38;102593.25;7287631;19;154107;-49
2021/11/18 02:15:34;;;;;;;;;;;;;;;19.85;51.20;102593.81;7289569;19;151784;-50
2021/11/18 02:18:02;;;;;;;;;;;;;;;19.85;51.01;102584.56;7289348;19;153297;-49
2021/11/18 02:20:33;;;;;;;;;;;;;;;19.83;51.01;102583.97;7287144;19;153892;-49
2021/11/18 02:23:01;;;;;;;;;;;;;;;19.82;51.15;102585.94;7296595;19;151591;-49
2021/11/18 02:25:29;;;;;;;;;;;;;;;19.81;51.08;102586.19;7288777;19;152375;-49
2021/11/18 02:27:56;;;;;;;;;;;;;;;19.81;51.48;102583.38;7289171;19;152045;-49
2021/11/18 02:30:26;;;;;;;;;;;;;;;19.80;51.20;102576.09;7289447;19;152585;-49
2021/11/18 02:32:54;;;;;;;;;;;;;;;19.81;51.58;102578.63;7287526;19;153710;-50
2021/11/18 02:35:28;;;;;;;;;;;;;;;19.78;51.27;102581.97;7289184;19;151541;-49
2021/11/18 02:37:56;;;;;;;;;;;;;;;19.80;51.33;102579.75;7289083;19;152715;-49
2021/11/18 02:40:24;;;;;;;;;;;;;;;19.80;51.00;102574.16;7283970;19;153793;-49
2021/11/18 02:42:52;;;;;;;;;;;;;;;19.76;51.44;102584.16;7286538;19;152001;-49
2021/11/18 02:45:21;;;;;;;;;;;;;;;19.73;51.56;102584.72;7296373;19;153014;-49
2021/11/18 02:47:47;;;;;;;;;;;;;;;19.71;51.64;102586.94;7288788;19;151568;-50
2021/11/18 02:50:19;;;;;;;;;;;;;;;19.73;51.26;102581.06;7288002;19;152057;-49
2021/11/18 02:52:47;;;;;;;;;;;;;;;19.66;51.38;102586.88;7287795;19;153464;-50
2021/11/18 02:55:19;;;;;;;;;;;;;;;19.67;51.37;102579.31;7288086;19;151842;-48
2021/11/18 02:57:46;;;;;;;;;;;;;;;19.65;51.80;102579.56;7287861;19;153329;-47
2021/11/18 03:00:18;;;;;;;;;;;;;;;19.64;51.64;102585.44;7286996;19;154591;-47
2021/11/18 03:02:45;;;;;;;;;;;;;;;19.62;51.75;102579.25;7287871;19;151948;-47
2021/11/18 03:05:12;;;;;;;;;;;;;;;19.61;51.52;102581.22;7286534;19;152897;-49
2021/11/18 03:07:39;;;;;;;;;;;;;;;19.57;51.99;102580.03;7294025;19;153834;-49
2021/11/18 03:10:08;;;;;;;;;;;;;;;19.56;51.56;102581.16;7287697;19;153260;-48
2021/11/18 03:12:35;;;;;;;;;;;;;;;19.57;51.81;102582.84;7286020;19;152587;-49
2021/11/18 03:15:03;;;;;;;;;;;;;;;19.56;51.83;102572.72;7288029;19;151701;-49
2021/11/18 03:17:29;;;;;;;;;;;;;;;19.56;51.77;102571.88;7287987;19;152590;-49
2021/11/18 03:19:56;;;;;;;;;;;;;;;19.57;51.85;102566.03;7286289;19;153980;-49
2021/11/18 03:22:23;;;;;;;;;;;;;;;19.53;51.93;102557.28;7285673;19;152388;-49
2021/11/18 03:24:50;;;;;;;;;;;;;;;19.51;52.38;102561.47;7287526;19;152975;-48
2021/11/18 03:27:16;;;;;;;;;;;;;;;19.51;52.33;102553.03;7287168;19;153868;-49
2021/11/18 03:29:43;;;;;;;;;;;;;;;19.47;52.22;102555.53;7295229;19;151697;-48
2021/11/18 03:32:10;;;;;;;;;;;;;;;19.45;52.31;102566.16;7285089;19;153826;-49
2021/11/18 03:34:37;;;;;;;;;;;;;;;19.46;52.05;102569.81;7287040;19;152105;-50
2021/11/18 03:37:03;;;;;;;;;;;;;;;19.47;52.37;102557.47;7287340;19;153189;-49
2021/11/18 03:39:30;;;;;;;;;;;;;;;19.43;52.51;102561.91;7285671;19;153645;-48
2021/11/18 03:42:01;;;;;;;;;;;;;;;19.45;52.53;102559.69;7285059;19;151868;-49
2021/11/18 03:44:28;;;;;;;;;;;;;;;19.46;52.71;102569.81;7287028;19;153360;-50
2021/11/18 03:46:57;;;;;;;;;;;;;;;19.44;52.31;102572.84;7271341;19;153990;-49
2021/11/18 03:49:24;;;;;;;;;;;;;;;19.46;52.55;102558.59;7280957;19;152016;-49
2021/11/18 03:51:52;;;;;;;;;;;;;;;19.43;52.42;102554.38;7296227;19;153079;-50
2021/11/18 03:54:21;;;;;;;;;;;;;;;19.43;52.16;102551.56;7287837;19;152005;-49
2021/11/18 03:56:48;;;;;;;;;;;;;;;19.45;52.39;102557.75;7290117;19;153701;-49
2021/11/18 03:59:16;;;;;;;;;;;;;;;19.43;52.63;102551.56;7287704;19;153565;-49
2021/11/18 04:01:44;;;;;;;;;;;;;;;19.41;52.37;102550.94;7287562;19;152229;-49
2021/11/18 04:04:12;;;;;;;;;;;;;;;19.42;52.48;102548.97;7288783;19;153699;-48
2021/11/18 04:06:39;;;;;;;;;;;;;;;19.41;52.65;102564.09;7286126;19;153257;-49
2021/11/18 04:09:06;;;;;;;;;;;;;;;19.41;52.36;102559.34;7288265;19;151851;-50
2021/11/18 04:11:34;;;;;;;;;;;;;;;19.38;52.33;102542.22;7288998;19;153292;-48
2021/11/18 04:14:01;;;;;;;;;;;;;;;19.40;52.59;102542.78;7294217;19;151495;-48
2021/11/18 04:16:28;;;;;;;;;;;;;;;19.40;52.76;102545.56;7289015;19;152553;-49
2021/11/18 04:18:55;;;;;;;;;;;;;;;19.40;52.79;102548.38;7287148;19;154377;-49
2021/11/18 04:21:22;;;;;;;;;;;;;;;19.40;52.61;102542.78;7287317;19;151524;-48
2021/11/18 04:23:49;;;;;;;;;;;;;;;19.37;52.88;102532.94;7288101;19;153464;-49
2021/11/18 04:26:16;;;;;;;;;;;;;;;19.38;52.69;102543.06;7287619;19;152322;-49
2021/11/18 04:28:42;;;;;;;;;;;;;;;19.35;52.50;102549.16;7288120;19;151715;-49
2021/11/18 04:31:12;;;;;;;;;;;;;;;19.36;52.44;102548.06;7288276;19;153341;-49
2021/11/18 04:33:40;;;;;;;;;;;;;;;19.35;52.95;102559.56;7293304;19;153464;-50
2021/11/18 04:36:09;;;;;;;;;;;;;;;19.35;52.96;102562.34;7288213;19;152922;-48
2021/11/18 04:38:36;;;;;;;;;;;;;;;19.36;52.99;102567.69;7287489;19;153853;-49
2021/11/18 04:41:05;;;;;;;;;;;;;;;19.36;52.76;102558.44;7287260;19;151668;-49
2021/11/18 04:43:32;;;;;;;;;;;;;;;19.33;53.12;102570.16;7286344;19;152594;-50
2021/11/18 04:45:59;;;;;;;;;;;;;;;19.30;53.30;102551.09;7287914;19;153169;-47
2021/11/18 04:48:26;;;;;;;;;;;;;;;19.32;53.37;102538.50;7286645;19;151792;-49
2021/11/18 04:50:52;;;;;;;;;;;;;;;19.32;53.05;102543.25;7288046;19;153282;-49
2021/11/18 04:53:19;;;;;;;;;;;;;;;19.30;53.52;102568.75;7286192;19;153805;-49
2021/11/18 04:55:46;;;;;;;;;;;;;;;19.30;53.32;102562.28;7296139;19;151704;-50
2021/11/18 04:58:13;;;;;;;;;;;;;;;19.30;53.58;102563.16;7286912;19;153304;-49
2021/11/18 05:00:43;;;;;;;;;;;;;;;19.25;53.82;102540.66;7286991;19;151883;-50
2021/11/18 05:03:09;;;;;;;;;;;;;;;19.29;54.03;102543.78;7286247;19;152874;-49
2021/11/18 05:05:36;;;;;;;;;;;;;;;19.29;54.11;102547.44;7283780;19;153680;-48
2021/11/18 05:08:03;;;;;;;;;;;;;;;19.27;53.99;102544.03;7286920;19;152138;-49
2021/11/18 05:10:30;;;;;;;;;;;;;;;19.27;54.17;102543.19;7287856;19;152625;-49
2021/11/18 05:12:57;;;;;;;;;;;;;;;19.29;53.93;102543.78;7286194;19;153381;-49
2021/11/18 05:15:25;;;;;;;;;;;;;;;19.27;54.12;102551.59;7286977;19;152132;-48
2021/11/18 05:17:52;;;;;;;;;;;;;;;19.25;54.32;102546.25;7292152;19;151877;-49
2021/11/18 05:20:20;;;;;;;;;;;;;;;19.25;54.21;102543.47;7287320;19;152043;-49
2021/11/18 05:22:47;;;;;;;;;;;;;;;19.27;54.20;102537.56;7283840;19;153051;-48
2021/11/18 05:25:15;;;;;;;;;;;;;;;19.27;53.93;102537.56;7285511;19;152635;-49
2021/11/18 05:27:42;;;;;;;;;;;;;;;19.21;54.47;102544.25;7285948;19;151562;-49
2021/11/18 05:30:10;;;;;;;;;;;;;;;19.24;54.10;102561.38;7286581;19;153534;-49
2021/11/18 05:32:37;;;;;;;;;;;;;;;19.20;54.43;102556.56;7284666;19;153158;-48
2021/11/18 05:35:04;;;;;;;;;;;;;;;19.15;54.62;102548.06;7286787;19;151735;-48
2021/11/18 05:37:31;;;;;;;;;;;;;;;19.20;54.41;102556.56;7285937;19;152403;-49
2021/11/18 05:39:58;;;;;;;;;;;;;;;19.12;54.83;102554.22;7292447;19;154020;-49
2021/11/18 05:42:25;;;;;;;;;;;;;;;19.14;55.31;102571.59;7283861;19;152580;-49
2021/11/18 05:44:52;;;;;;;;;;;;;;;19.17;55.35;102568.28;7285244;19;153971;-49
2021/11/18 05:47:19;;;;;;;;;;;;;;;19.18;55.82;102569.97;7284379;19;151982;-49
2021/11/18 05:49:46;;;;;;;;;;;;;;;19.20;56.00;102567.75;7286352;19;153054;-49
2021/11/18 05:52:13;;;;;;;;;;;;;;;19.22;55.84;102551.50;7285176;19;153562;-49
2021/11/18 05:54:40;;;;;;;;;;;;;;;19.24;56.42;102552.97;7283386;19;152330;-49
2021/11/18 05:57:06;;;;;;;;;;;;;;;19.28;56.41;102545.72;7283414;19;152436;-49
2021/11/18 05:59:33;;;;;;;;;;;;;;;19.33;56.55;102542.13;7283686;19;153788;-49
2021/11/18 06:02:00;;;;;;;;;;;;;;;19.37;56.97;102548.91;7290645;19;151964;-48
2021/11/18 06:04:28;;;;;;;;;;;;;;;19.41;57.68;102538.88;7284672;19;153653;-49
2021/11/18 06:06:55;;;;;;;;;;;;;;;19.45;57.53;102537.25;7282610;19;152185;-48
2021/11/18 06:09:21;;;;;;;;;;;;;;;19.50;57.42;102534.53;7285103;19;152476;-48
2021/11/18 06:11:48;;;;;;;;;;;;;;;19.55;57.13;102543.00;7282593;19;153274;-49
2021/11/18 06:14:15;;;;;;;;;;;;;;;19.60;57.67;102533.78;7285057;19;151843;-49
2021/11/18 06:16:42;;;;;;;;;;;;;;;19.66;56.96;102542.00;7287972;19;152604;-49
2021/11/18 06:19:09;;;;;;;;;;;;;;;19.72;56.80;102542.88;7290047;19;152245;-49
2021/11/18 06:21:38;;;;;;;;;;;;;;;19.77;57.24;102546.59;7298769;19;151796;-49
2021/11/18 06:24:05;;;;;;;;;;;;;;;19.84;56.69;102549.22;7289914;19;154081;-49
2021/11/18 06:26:32;;;;;;;;;;;;;;;19.86;56.85;102547.81;7291692;19;152074;-48
2021/11/18 06:28:58;;;;;;;;;;;;;;;19.92;56.74;102560.81;7291656;19;152556;-49
2021/11/18 06:31:25;;;;;;;;;;;;;;;19.98;56.82;102551.31;7290927;19;153637;-49
2021/11/18 06:33:52;;;;;;;;;;;;;;;20.03;56.67;102546.88;7289117;19;151840;-50
2021/11/18 06:36:20;;;;;;;;;;;;;;;20.10;56.23;102561.53;7291569;19;153314;-50
2021/11/18 06:38:48;;;;;;;;;;;;;;;20.14;56.06;102560.72;7286502;19;152703;-49
2021/11/18 06:41:16;;;;;;;;;;;;;;;20.19;55.96;102560.78;7292193;19;151855;-49
2021/11/18 06:43:43;;;;;;;;;;;;;;;20.23;56.15;102566.69;7297573;19;152972;-49
2021/11/18 06:46:11;;;;;;;;;;;;;;;20.27;55.85;102571.50;7291552;19;151845;-49
2021/11/18 06:48:38;;;;;;;;;;;;;;;20.32;55.21;102574.38;7290302;19;151942;-49
2021/11/18 06:51:10;;;;;;;;;;;;;;;20.38;55.03;102581.75;7290983;19;153227;-49
2021/11/18 06:53:37;;;;;;;;;;;;;;;20.42;55.69;102579.25;7291092;19;151979;-50
2021/11/18 06:56:05;;;;;;;;;;;;;;;20.47;55.05;102587.72;7292120;19;152595;-50
2021/11/18 06:58:32;;;;;;;;;;;;;;;20.52;55.16;102589.72;7288786;19;153327;-49
2021/11/18 07:00:59;;;;;;;;;;;;;;;20.57;54.90;102598.19;7290896;19;152589;-49
2021/11/18 07:03:26;;;;;;;;;;;;;;;20.60;54.78;102606.06;7288365;19;153573;-50
2021/11/18 07:05:52;;;;;;;;;;;;;;;20.65;54.59;102606.97;7297889;19;153267;-50
2021/11/18 07:08:19;;;;;;;;;;;;;;;20.69;54.74;102610.91;7289934;19;152560;-47
2021/11/18 07:10:46;;;;;;;;;;;;;;;20.73;54.77;102609.25;7289235;19;152626;-47
2021/11/18 07:13:18;;;;;;;;;;;;;;;20.76;54.81;102605.91;7290063;19;151819;-46
2021/11/18 07:15:45;;;;;;;;;;;;;;;20.82;54.15;102604.84;7290278;19;153492;-48
2021/11/18 07:18:11;;;;;;;;;;;;;;;20.85;54.42;102621.16;7288736;19;153222;-47
2021/11/18 07:20:39;;;;;;;;;;;;;;;20.90;54.06;102628.75;7290333;19;151489;-47
2021/11/18 07:23:07;;;;;;;;;;;;;;;20.93;54.39;102625.44;7286091;19;153279;-49
2021/11/18 07:25:34;;;;;;;;;;;;;;;20.99;54.19;102629.09;7288728;19;153287;-50
2021/11/18 07:28:01;;;;;;;;;;;;;;;21.02;54.75;102622.97;7295905;19;151824;-50
2021/11/18 07:30:29;;;;;;;;;;;;;;;21.04;54.11;102621.56;7289310;19;154278;-50
2021/11/18 07:32:56;;;;;;;;;;;;;;;21.09;54.09;102624.41;7287234;19;152189;-49
2021/11/18 07:35:23;;;;;;;;;;;;;;;21.14;54.33;102620.81;7290051;19;153822;-50
2021/11/18 07:37:49;;;;;;;;;;;;;;;21.18;54.26;102624.75;7287968;19;152735;-49
2021/11/18 07:40:18;;;;;;;;;;;;;;;21.20;54.14;102631.81;7289442;19;151891;-49
2021/11/18 07:42:44;;;;;;;;;;;;;;;21.25;53.79;102639.44;7287446;19;152422;-49
2021/11/18 07:45:12;;;;;;;;;;;;;;;21.28;53.69;102650.97;7288442;19;154195;-49
2021/11/18 07:47:39;;;;;;;;;;;;;;;21.32;53.63;102650.44;7288328;19;152088;-49
2021/11/18 07:50:07;;;;;;;;;;;;;;;21.34;53.79;102654.69;7295707;19;153360;-49
2021/11/18 07:52:34;;;;;;;;;;;;;;;21.40;53.66;102663.97;7288898;19;151814;-50
2021/11/18 07:55:01;;;;;;;;;;;;;;;21.43;53.31;102658.66;7290153;19;152710;-49
2021/11/18 07:57:28;;;;;;;;;;;;;;;21.46;53.54;102652.47;7287530;19;153391;-50
2021/11/18 07:59:54;;;;;;;;;;;;;;;21.49;53.09;102649.13;7288820;19;151818;-50
2021/11/18 08:02:21;;;;;;;;;;;;;;;21.53;53.08;102649.44;7286189;19;153309;-50
2021/11/18 08:04:48;;;;;;;;;;;;;;;21.56;52.97;102652.53;7286350;19;154066;-50
2021/11/18 08:07:15;;;;;;;;;;;;;;;21.59;53.18;102639.88;7288617;19;151941;-50
2021/11/18 08:09:46;;;;;;;;;;;;;;;21.63;52.97;102646.66;7289049;19;153309;-49
2021/11/18 08:12:13;;;;;;;;;;;;;;;21.66;52.81;102637.69;7294973;19;154284;-49
2021/11/18 08:14:39;;;;;;;;;;;;;;;21.68;52.77;102641.91;7289029;19;153611;-49
2021/11/18 08:17:06;;;;;;;;;;;;;;;21.71;52.24;102643.34;7286443;19;154140;-49
2021/11/18 08:19:33;;;;;;;;;;;;;;;21.73;52.46;102644.72;7287339;19;151888;-49
2021/11/18 08:21:59;;;;;;;;;;;;;;;21.77;52.18;102652.63;7287981;19;153301;-49
2021/11/18 08:24:28;;;;;;;;;;;;;;;21.77;51.80;102649.78;7287333;19;153993;-50
2021/11/18 08:26:55;;;;;;;;;;;;;;;21.78;51.79;102652.34;7287029;19;152159;-49
2021/11/18 08:29:23;;;;;;;;;;;;;;;21.80;51.93;102652.09;7287981;19;151570;-49
2021/11/18 08:31:50;;;;;;;;;;;;;;;21.80;51.58;102641.69;7294379;19;153324;-49
2021/11/18 08:34:18;;;;;;;;;;;;;;;21.80;51.62;102644.50;7288565;19;152801;-50
2021/11/18 08:36:46;;;;;;;;;;;;;;;21.80;51.63;102650.13;7286970;19;152241;-48
2021/11/18 08:39:19;;;;;;;;;;;;;;;21.81;51.66;102646.16;7286806;19;151744;-49
2021/11/18 08:41:51;;;;;;;;;;;;;;;21.81;51.44;102653.75;7287232;19;152619;-48
2021/11/18 08:44:18;;;;;;;;;;;;;;;21.80;51.33;102655.75;7281719;19;152948;-49
2021/11/18 08:46:45;;;;;;;;;;;;;;;21.81;51.80;102662.19;7287616;19;151502;-50
2021/11/18 08:49:13;;;;;;;;;;;;;;;21.79;51.45;102656.88;7287913;19;152686;-50
2021/11/18 08:51:40;;;;;;;;;;;;;;;21.80;51.27;102652.94;7286721;19;154110;-49
2021/11/18 08:54:09;;;;;;;;;;;;;;;21.79;51.68;102644.75;7294395;19;151816;-49
2021/11/18 08:56:37;;;;;;;;;;;;;;;21.78;51.31;102648.69;7286908;19;153898;-49
2021/11/18 08:59:05;;;;;;;;;;;;;;;21.74;50.43;102642.78;7286949;19;152030;-49
2021/11/18 09:01:35;;;;;;;;;;;;;;;21.72;49.96;102636.56;7284512;19;153442;-49
2021/11/18 09:04:04;;;;;;;;;;;;;;;21.76;50.04;102642.50;7283080;19;154097;-50
2021/11/18 09:06:30;;;;;;;;;;;;;;;21.72;50.42;102633.75;7287039;19;152221;-49
2021/11/18 09:08:57;;;;;;;;;;;;;;;21.72;50.53;102637.41;7286621;19;152052;-49
2021/11/18 09:11:24;;;;;;;;;;;;;;;21.71;50.76;102635.72;7285667;19;154206;-50
2021/11/18 09:13:52;;;;;;;;;;;;;;;21.71;50.97;102632.06;7287397;19;151526;-50
2021/11/18 09:16:20;;;;;;;;;;;;;;;21.69;50.90;102640.78;7293788;19;152589;-50
2021/11/18 09:18:47;;;;;;;;;;;;;;;21.65;49.84;102641.59;7286906;19;151490;-48
2021/11/18 09:21:16;;;;;;;;;;;;;;;21.56;49.30;102632.00;7287295;19;153136;-47
2021/11/18 09:23:46;;;;;;;;;;;;;;;21.54;48.37;102645.47;7281925;19;153935;-47
2021/11/18 09:26:14;;;;;;;;;;;;;;;21.36;44.73;102646.81;7286868;19;151884;-47
2021/11/18 09:28:41;;;;;;;;;;;;;;;21.04;43.08;102651.63;7284440;19;152452;-47
2021/11/18 09:31:09;;;;;;;;;;;;;;;20.81;42.74;102653.72;7284378;19;153591;-47
2021/11/18 09:33:35;;;;;;;;;;;;;;;20.46;42.92;102655.38;7284442;19;151444;-46
2021/11/18 09:36:04;;;;;;;;;;;;;;;20.50;45.21;102657.38;7283203;19;153295;-47
2021/11/18 09:38:32;;;;;;;;;;;;;;;20.60;46.21;102659.44;7291583;19;153215;-47
2021/11/18 09:41:11;;;;;;;;;;;;;;;20.64;46.63;102646.53;7285206;19;152555;-49
2021/11/18 09:43:44;;;;;;;;;;;;;;;20.64;46.82;102660.59;7281938;19;153230;-48
2021/11/18 09:46:29;;;;;;;;;;;;;;;20.63;47.01;102662.53;7284395;19;151818;-49
2021/11/18 09:49:14;;;;;;;;;;;;;;;20.67;47.09;102671.31;7284950;19;152698;-49
2021/11/18 09:52:04;;;;;;;;;;;;;;;20.66;47.03;102670.44;7286413;19;153976;-49
2021/11/18 09:54:52;;;;;;;;;;;;;;;20.73;47.14;102670.22;7291929;19;151848;-49
2021/11/18 09:57:31;;;;;;;;;;;;;;;20.71;46.97;102673.31;7290140;19;153340;-50
2021/11/18 10:00:08;;;;;;;;;;;;;;;20.75;47.04;102668.84;7290785;19;153128;-49
2021/11/18 10:02:38;;;;;;;;;;;;;;;20.73;47.22;102676.69;7296002;19;151796;-49
2021/11/18 10:05:12;;;;;;;;;;;;;;;20.72;47.38;102677.78;7290125;19;153907;-49
2021/11/18 10:07:44;;;;;;;;;;;;;;;20.67;47.68;102680.53;7289928;19;152336;-49
2021/11/18 10:10:27;;;;;;;;;;;;;;;20.71;47.70;102684.53;7266032;19;153655;-50
2021/11/18 10:12:59;;;;;;;;;;;;;;;20.68;47.50;102679.44;7280461;19;153324;-49
2021/11/18 10:15:28;;;;;;;;;;;;;;;20.69;47.81;102691.53;7289007;19;152313;-47
2021/11/18 10:17:58;;;;;;;;;;;;;;;20.69;47.69;102686.75;7287224;19;153233;-48
2021/11/18 10:20:26;;;;;;;;;;;;;;;20.70;47.78;102688.47;7279951;19;152790;-47
2021/11/18 10:22:55;;;;;;;;;;;;;;;20.70;47.45;102693.22;7288754;19;151892;-50
2021/11/18 10:25:32;;;;;;;;;;;;;;;20.69;47.91;102689.56;7296509;19;152573;-51
2021/11/18 10:28:01;;;;;;;;;;;;;;;20.62;47.98;102683.34;7289128;19;151865;-50
2021/11/18 10:30:33;;;;;;;;;;;;;;;20.64;47.71;102681.09;7288695;19;153186;-49
2021/11/18 10:33:03;;;;;;;;;;;;;;;20.64;48.10;102677.44;7286147;19;153415;-49
2021/11/18 10:35:39;;;;;;;;;;;;;;;20.64;47.69;102681.09;7287734;19;151720;-59
2021/11/18 10:38:12;;;;;;;;;;;;;;;20.67;47.79;102690.97;7288319;19;152798;-49
2021/11/18 10:40:49;;;;;;;;;;;;;;;20.61;48.16;102681.63;7288574;19;154161;-48
2021/11/18 10:43:17;;;;;;;;;;;;;;;20.62;47.76;102680.53;7287988;19;152031;-49
2021/11/18 10:45:49;;;;;;;;;;;;;;;20.60;48.21;102663.09;7296213;19;151784;-49
2021/11/18 10:48:16;;;;;;;;;;;;;;;20.59;48.08;102660.53;7288854;19;151937;-49
2021/11/18 10:50:46;;;;;;;;;;;;;;;20.56;48.35;102670.34;7288112;19;152051;-49
2021/11/18 10:53:18;;;;;;;;;;;;;;;20.54;48.21;102664.16;7287940;19;153256;-48
2021/11/18 10:55:46;;;;;;;;;;;;;;;20.58;48.04;102662.50;7287875;19;151999;-49
2021/11/18 10:58:28;;;;;;;;;;;;;;;20.60;48.10;102662.22;7288398;19;152279;-50
2021/11/18 11:00:58;;;;;;;;;;;;;;;20.60;47.98;102660.28;7286949;19;153398;-49
2021/11/18 11:03:34;;;;;;;;;;;;;;;20.56;48.25;102659.13;7285151;19;151917;-48
2021/11/18 11:06:17;;;;;;;;;;;;;;;20.51;48.76;102666.66;7289262;19;152664;-49
2021/11/18 11:08:49;;;;;;;;;;;;;;;20.49;48.71;102663.28;7293683;19;153953;-49
2021/11/18 11:11:22;;;;;;;;;;;;;;;20.50;49.06;102665.78;7286515;19;153897;-48
2021/11/18 11:14:09;;;;;;;;;;;;;;;20.54;48.98;102646.44;7281798;19;153092;-49
2021/11/18 11:16:36;;;;;;;;;;;;;;;20.55;48.55;102662.19;7287741;19;152028;-49
2021/11/18 11:19:09;;;;;;;;;;;;;;;20.54;48.71;102666.94;7288032;19;154298;-48
2021/11/18 11:21:41;;;;;;;;;;;;;;;20.56;48.81;102652.66;7284970;19;153276;-48
2021/11/18 11:24:10;;;;;;;;;;;;;;;20.58;48.48;102658.88;7286587;19;153293;-48
2021/11/18 11:26:50;;;;;;;;;;;;;;;20.60;48.38;102663.09;7288525;19;152767;-50
2021/11/18 11:29:35;;;;;;;;;;;;;;;20.60;48.70;102659.44;7285178;19;154012;-49
2021/11/18 11:32:11;;;;;;;;;;;;;;;20.58;48.53;102656.88;7295805;19;152066;-50
2021/11/18 11:35:01;;;;;;;;;;;;;;;20.58;48.65;102665.31;7287043;19;153908;-48
2021/11/18 11:37:34;;;;;;;;;;;;;;;20.49;48.92;102672.50;7286597;19;151914;-48
2021/11/18 11:40:04;;;;;;;;;;;;;;;20.44;49.17;102663.22;7286071;19;151959;-49
2021/11/18 11:42:32;;;;;;;;;;;;;;;20.40;49.32;102660.06;7284295;19;154601;-49
2021/11/18 11:45:02;;;;;;;;;;;;;;;20.38;49.14;102660.34;7286048;19;152987;-49
2021/11/18 11:47:32;;;;;;;;;;;;;;;20.39;49.12;102661.22;7286959;19;153497;-50
2021/11/18 11:50:00;;;;;;;;;;;;;;;20.43;49.25;102656.75;7286748;19;153198;-49
2021/11/18 11:52:30;;;;;;;;;;;;;;;20.41;49.38;102651.41;7287299;19;152311;-50
2021/11/18 11:55:05;;;;;;;;;;;;;;;20.36;49.54;102656.09;7294634;19;152917;-49
2021/11/18 11:57:33;;;;;;;;;;;;;;;20.38;49.48;102651.94;7286985;19;151849;-50
2021/11/18 12:00:01;;;;;;;;;;;;;;;20.36;49.48;102642.06;7285539;19;152406;-48
2021/11/18 12:02:31;;;;;;;;;;;;;;;20.36;49.43;102642.91;7284062;19;153685;-50
2021/11/18 12:05:02;;;;;;;;;;;;;;;20.36;49.48;102637.31;7285150;19;152310;-48
2021/11/18 12:07:34;;;;;;;;;;;;;;;20.30;49.76;102641.19;7285100;19;152790;-48
2021/11/18 12:10:06;;;;;;;;;;;;;;;20.27;49.46;102633.25;7284852;19;153345;-49
2021/11/18 12:12:34;;;;;;;;;;;;;;;20.31;49.59;102644.81;7283330;19;152086;-49
2021/11/18 12:15:05;;;;;;;;;;;;;;;20.31;49.48;102645.69;7282601;19;153411;-49
2021/11/18 12:17:39;;;;;;;;;;;;;;;20.26;49.97;102651.19;7290667;19;154084;-49
2021/11/18 12:20:08;;;;;;;;;;;;;;;20.24;50.35;102644.19;7288007;19;152563;-49
2021/11/18 12:22:38;;;;;;;;;;;;;;;20.27;50.28;102652.06;7284887;19;153284;-49
2021/11/18 12:25:08;;;;;;;;;;;;;;;20.31;50.14;102650.44;7285732;19;151955;-48
2021/11/18 12:27:38;;;;;;;;;;;;;;;20.35;50.59;102648.81;7286125;19;153524;-49
2021/11/18 12:30:19;;;;;;;;;;;;;;;20.36;50.45;102645.72;7285750;19;153933;-49
2021/11/18 12:32:51;;;;;;;;;;;;;;;20.41;50.92;102650.53;7284445;19;152046;-49
2021/11/18 12:35:21;;;;;;;;;;;;;;;20.45;50.90;102645.22;7285314;19;153096;-49
2021/11/18 12:37:51;;;;;;;;;;;;;;;20.50;51.11;102645.28;7284792;19;153480;-49